Time;durP1;ratioP1;P1;durP2;ratioP2;P2;SDS_P1;SDS_P2;PMS_P1;PMS_P2;Temp;Humidity;BMP_temperature;BMP_pressure;BME280_temperature;BME280_humidity;BME280_pressure;Samples;Min_cycle;Max_cycle;Signal;HPM_P1;HPM_P2
2024/04/09 00:02:25;;;;;;;;;;;;;;;24.67;32.78;93226.19;5373497;26;7399;-63
2024/04/09 00:05:08;;;;;;;;;;;;;;;24.65;33.24;93206.72;5384623;26;7137;-63
2024/04/09 00:07:54;;;;;;;;;;;;;;;24.73;33.20;93214.31;5350637;26;6889;-63
2024/04/09 00:10:37;;;;;;;;;;;;;;;24.68;33.05;93207.69;5373004;26;7045;-63
2024/04/09 00:13:29;;;;;;;;;;;;;;;24.73;33.23;93214.31;5396044;26;7155;-63
2024/04/09 00:16:26;;;;;;;;;;;;;;;24.72;33.07;93213.59;5408910;26;7202;-63
2024/04/09 00:19:17;;;;;;;;;;;;;;;24.68;33.31;93213.88;5615327;25;6693;-62
2024/04/09 00:21:44;;;;;;;;;;;;;;;24.71;33.05;93203.84;5550048;25;7390;-63
2024/04/09 00:24:15;;;;;;;;;;;;;;;24.67;33.26;93192.44;5536306;25;7215;-58
2024/04/09 00:26:51;;;;;;;;;;;;;;;24.75;33.34;93206.31;5572134;25;9835;-58
2024/04/09 00:29:20;;;;;;;;;;;;;;;24.71;32.90;93207.34;5570973;25;6941;-58
2024/04/09 00:31:57;;;;;;;;;;;;;;;24.68;32.99;93202.88;5525344;25;7111;-58
2024/04/09 00:34:31;;;;;;;;;;;;;;;24.71;33.12;93196.34;5558660;25;9586;-59
2024/04/09 00:37:06;;;;;;;;;;;;;;;24.66;32.95;93193.72;5577283;25;7119;-58
2024/04/09 00:39:51;;;;;;;;;;;;;;;24.66;33.21;93205.44;5577704;25;7416;-58
2024/04/09 00:42:53;;;;;;;;;;;;;;;24.71;33.36;93212.84;5542456;25;7310;-58
2024/04/09 00:45:27;;;;;;;;;;;;;;;24.68;33.10;93215.91;5422869;26;7231;-58
2024/04/09 00:47:56;;;;;;;;;;;;;;;24.69;33.02;93217.38;5362632;26;7067;-58
2024/04/09 00:50:24;;;;;;;;;;;;;;;24.70;32.93;93233.38;5362282;26;8973;-58
2024/04/09 00:53:20;;;;;;;;;;;;;;;24.69;32.92;93231.88;5395355;26;7173;-58
2024/04/09 00:56:20;;;;;;;;;;;;;;;24.70;33.21;93230.63;5275367;27;7315;-58
2024/04/09 00:59:34;;;;;;;;;;;;;;;24.70;32.80;93232.63;5270421;27;7981;-58
2024/04/09 01:02:24;;;;;;;;;;;;;;;24.70;33.00;93238.88;5204724;27;7685;-58
2024/04/09 01:04:55;;;;;;;;;;;;;;;24.71;32.76;93245.84;5162532;27;8629;-58
2024/04/09 01:07:25;;;;;;;;;;;;;;;24.67;33.10;93220.69;5211669;27;7328;-58
2024/04/09 01:09:51;;;;;;;;;;;;;;;24.65;33.10;93225.97;5219274;27;7852;-58
2024/04/09 01:12:22;;;;;;;;;;;;;;;24.67;32.96;93242.66;5200063;27;6962;-58
2024/04/09 01:14:48;;;;;;;;;;;;;;;24.71;32.88;93251.31;5203163;27;9117;-58
2024/04/09 01:17:14;;;;;;;;;;;;;;;24.65;33.09;93247.97;5210648;27;7134;-58
2024/04/09 01:19:42;;;;;;;;;;;;;;;24.69;32.72;93258.63;5280205;27;8021;-58
2024/04/09 01:22:09;;;;;;;;;;;;;;;24.68;33.13;93257.16;5281452;27;8980;-58
2024/04/09 01:24:35;;;;;;;;;;;;;;;24.68;32.88;93240.66;5259190;27;7110;-58
2024/04/09 01:27:12;;;;;;;;;;;;;;;24.67;33.08;93247.44;5286587;27;8546;-58
2024/04/09 01:29:49;;;;;;;;;;;;;;;24.65;32.79;93252.72;5305369;27;9047;-58
2024/04/09 01:32:20;;;;;;;;;;;;;;;24.68;33.06;93246.16;5325552;26;7174;-58
2024/04/09 01:34:49;;;;;;;;;;;;;;;24.62;33.21;93237.31;5408209;26;8966;-59
2024/04/09 01:37:28;;;;;;;;;;;;;;;24.65;33.25;93245.22;5427266;26;7362;-58
2024/04/09 01:39:59;;;;;;;;;;;;;;;24.69;33.02;93244.88;5490533;26;7740;-58
2024/04/09 01:42:30;;;;;;;;;;;;;;;24.64;33.02;93240.97;5516057;26;9107;-62
2024/04/09 01:45:01;;;;;;;;;;;;;;;24.65;33.07;93247.22;5483498;26;8653;-62
2024/04/09 01:47:28;;;;;;;;;;;;;;;24.61;33.10;93242.06;5491917;26;7186;-62
2024/04/09 01:49:54;;;;;;;;;;;;;;;24.63;32.69;93253.25;5454925;26;7422;-62
2024/04/09 01:52:22;;;;;;;;;;;;;;;24.61;33.16;93250.31;5485565;26;7086;-62
2024/04/09 01:54:49;;;;;;;;;;;;;;;24.64;33.18;93256.75;5516319;26;10019;-62
2024/04/09 01:57:17;;;;;;;;;;;;;;;24.60;32.77;93251.56;5482538;26;7591;-59
2024/04/09 01:59:43;;;;;;;;;;;;;;;24.57;33.20;93252.63;5518165;26;7090;-62
2024/04/09 02:02:10;;;;;;;;;;;;;;;24.59;32.74;93266.59;5511171;26;7043;-62
2024/04/09 02:04:40;;;;;;;;;;;;;;;24.61;33.19;93269.56;5518524;26;7450;-62
2024/04/09 02:07:08;;;;;;;;;;;;;;;24.65;33.39;93291.97;5516048;26;7136;-61
2024/04/09 02:09:37;;;;;;;;;;;;;;;24.61;33.12;93299.03;5521529;26;9448;-62
2024/04/09 02:12:04;;;;;;;;;;;;;;;24.65;32.91;93321.44;5506620;26;7372;-62
2024/04/09 02:14:37;;;;;;;;;;;;;;;24.64;33.25;93328.94;5511702;26;9083;-62
2024/04/09 02:17:16;;;;;;;;;;;;;;;24.64;33.11;93339.22;5493195;26;7073;-62
2024/04/09 02:19:43;;;;;;;;;;;;;;;24.62;33.43;93347.28;5486775;26;7969;-62
2024/04/09 02:22:09;;;;;;;;;;;;;;;24.61;33.01;93357.53;5487433;26;7052;-62
2024/04/09 02:24:36;;;;;;;;;;;;;;;24.58;32.86;93364.06;5490280;26;8021;-62
2024/04/09 02:27:13;;;;;;;;;;;;;;;24.56;33.25;93361.09;5520734;26;9039;-62
2024/04/09 02:30:17;;;;;;;;;;;;;;;24.52;32.83;93376.44;5516005;26;7192;-62
2024/04/09 02:32:52;;;;;;;;;;;;;;;24.49;33.47;93374.75;5373282;26;7151;-62
2024/04/09 02:35:21;;;;;;;;;;;;;;;24.42;33.31;93378.88;5375095;26;7035;-62
2024/04/09 02:37:51;;;;;;;;;;;;;;;24.41;33.87;93401.38;5375068;26;7077;-62
2024/04/09 02:40:33;;;;;;;;;;;;;;;24.30;33.57;93399.56;5373054;26;7259;-62
2024/04/09 02:43:16;;;;;;;;;;;;;;;24.31;33.53;93403.06;5374133;26;7125;-63
2024/04/09 02:45:51;;;;;;;;;;;;;;;24.27;34.00;93405.38;5335468;26;7365;-62
2024/04/09 02:48:24;;;;;;;;;;;;;;;24.16;33.89;93400.81;5372414;26;8026;-62
2024/04/09 02:51:06;;;;;;;;;;;;;;;24.17;33.90;93396.78;5377390;26;7335;-62
2024/04/09 02:53:42;;;;;;;;;;;;;;;24.17;34.09;93409.78;5340046;26;7957;-70
2024/04/09 02:56:12;;;;;;;;;;;;;;;24.15;34.08;93413.06;5374898;26;7168;-69
2024/04/09 02:58:41;;;;;;;;;;;;;;;24.15;34.31;93415.81;5345069;26;9078;-69
2024/04/09 03:01:15;;;;;;;;;;;;;;;24.15;34.64;93417.81;5369181;26;7114;-70
2024/04/09 03:03:45;;;;;;;;;;;;;;;24.15;34.42;93415.81;5374914;26;7020;-69
2024/04/09 03:06:33;;;;;;;;;;;;;;;24.19;34.36;93424.47;5413619;26;7040;-69
2024/04/09 03:09:06;;;;;;;;;;;;;;;24.20;34.51;93427.97;5519891;26;7065;-69
2024/04/09 03:12:08;;;;;;;;;;;;;;;24.19;34.36;93432.72;5522272;26;7039;-69
2024/04/09 03:14:45;;;;;;;;;;;;;;;24.16;34.34;93433.78;5445076;26;7339;-68
2024/04/09 03:17:24;;;;;;;;;;;;;;;24.14;34.34;93432.81;5415895;26;7005;-69
2024/04/09 03:19:50;;;;;;;;;;;;;;;24.19;34.70;93443.72;5385395;26;7027;-69
2024/04/09 03:22:19;;;;;;;;;;;;;;;24.14;34.59;93428.03;5428455;26;7424;-69
2024/04/09 03:24:47;;;;;;;;;;;;;;;24.21;34.59;93438.44;5409378;26;6977;-68
2024/04/09 03:27:14;;;;;;;;;;;;;;;24.16;34.65;93428.28;5443472;26;7953;-68
2024/04/09 03:29:41;;;;;;;;;;;;;;;24.22;34.81;93437.19;5423065;26;7943;-68
2024/04/09 03:32:19;;;;;;;;;;;;;;;24.24;34.49;93440.13;5445336;26;9432;-68
2024/04/09 03:35:05;;;;;;;;;;;;;;;24.19;34.71;93434.72;5447441;26;7452;-68
2024/04/09 03:37:33;;;;;;;;;;;;;;;24.17;34.48;93427.00;5448001;26;8041;-68
2024/04/09 03:40:01;;;;;;;;;;;;;;;24.15;34.26;93432.28;5442106;26;7105;-68
2024/04/09 03:42:29;;;;;;;;;;;;;;;24.22;35.08;93447.41;5416148;26;7741;-68
2024/04/09 03:45:00;;;;;;;;;;;;;;;24.17;35.24;93451.00;5449794;26;7665;-68
2024/04/09 03:47:28;;;;;;;;;;;;;;;24.20;34.63;93455.44;5436245;26;7936;-68
2024/04/09 03:49:57;;;;;;;;;;;;;;;24.17;35.00;93461.97;5520943;26;7150;-68
2024/04/09 03:52:23;;;;;;;;;;;;;;;24.22;34.71;93470.16;5488277;26;6985;-68
2024/04/09 03:55:00;;;;;;;;;;;;;;;24.17;34.84;93462.72;5489371;26;7346;-68
2024/04/09 03:57:38;;;;;;;;;;;;;;;;;;5469693;26;7070;-68
2024/04/09 04:00:22;;;;;;;;;;;;;;;24.22;34.91;93463.91;5520526;26;7696;-68
2024/04/09 04:02:54;;;;;;;;;;;;;;;24.22;34.85;93461.16;5521158;25;8683;-68
2024/04/09 04:05:51;;;;;;;;;;;;;;;24.23;35.14;93465.41;5521027;26;7720;-68
2024/04/09 04:08:44;;;;;;;;;;;;;;;24.25;35.31;93476.59;5408731;26;7253;-68
2024/04/09 04:11:14;;;;;;;;;;;;;;;24.26;35.09;93469.81;5389865;26;7405;-68
2024/04/09 04:14:16;;;;;;;;;;;;;;;24.27;35.16;93477.53;5407902;26;7416;-68
2024/04/09 04:16:43;;;;;;;;;;;;;;;24.27;35.11;93485.06;5406997;26;7637;-67
2024/04/09 04:19:09;;;;;;;;;;;;;;;24.24;35.21;93475.84;5407539;26;7351;-68
2024/04/09 04:21:36;;;;;;;;;;;;;;;24.25;35.21;93485.56;5379283;26;7370;-67
2024/04/09 04:24:02;;;;;;;;;;;;;;;24.29;35.03;93496.28;5408142;26;6973;-67
2024/04/09 04:26:30;;;;;;;;;;;;;;;24.24;35.56;93484.09;5409149;26;6945;-67
2024/04/09 04:29:05;;;;;;;;;;;;;;;24.22;34.99;93477.63;5408455;26;9086;-67
2024/04/09 04:31:33;;;;;;;;;;;;;;;24.26;35.44;93487.06;5408534;26;7328;-68
2024/04/09 04:34:10;;;;;;;;;;;;;;;24.24;35.23;93473.09;5391246;26;7670;-64
2024/04/09 04:36:46;;;;;;;;;;;;;;;24.29;35.63;93488.03;5391521;26;7038;-65
2024/04/09 04:39:14;;;;;;;;;;;;;;;24.31;35.59;93483.50;5406902;26;7894;-63
2024/04/09 04:42:07;;;;;;;;;;;;;;;24.35;37.09;93488.69;5407924;26;9703;-64
2024/04/09 04:44:36;;;;;;;;;;;;;;;24.38;38.15;93482.88;5420716;26;7392;-65
2024/04/09 04:47:06;;;;;;;;;;;;;;;24.42;37.43;93488.06;5484831;26;7275;-64
2024/04/09 04:49:57;;;;;;;;;;;;;;;24.42;37.85;93488.81;5478427;26;7156;-63
2024/04/09 04:56:22;;;;;;;;;;;;;;;24.34;36.36;93517.41;5389132;26;7038;-64
2024/04/09 04:58:50;;;;;;;;;;;;;;;24.30;36.33;93525.22;5377881;26;7686;-63
2024/04/09 05:01:21;;;;;;;;;;;;;;;24.26;36.04;93520.03;5388476;26;6954;-67
2024/04/09 05:04:17;;;;;;;;;;;;;;;24.29;36.49;93535.50;5402615;26;7341;-66
2024/04/09 05:07:08;;;;;;;;;;;;;;;24.25;36.47;93528.81;5411229;26;7776;-66
2024/04/09 05:09:36;;;;;;;;;;;;;;;24.28;36.31;93545.00;5386469;26;7136;-66
2024/04/09 05:12:14;;;;;;;;;;;;;;;24.32;36.15;93555.66;5411528;26;7069;-66
2024/04/09 05:14:42;;;;;;;;;;;;;;;24.27;36.74;93557.22;5375816;26;7398;-66
2024/04/09 05:17:30;;;;;;;;;;;;;;;24.35;36.86;93576.63;5416535;26;7404;-64
2024/04/09 05:19:59;;;;;;;;;;;;;;;24.29;36.76;93579.47;5405629;26;7724;-61
2024/04/09 05:22:25;;;;;;;;;;;;;;;24.32;36.86;93581.16;5393678;26;8934;-63
2024/04/09 05:24:51;;;;;;;;;;;;;;;24.29;36.01;93595.19;5378682;26;7071;-63
2024/04/09 05:27:18;;;;;;;;;;;;;;;24.26;36.30;93610.72;5359669;26;9120;-70
2024/04/09 05:29:56;;;;;;;;;;;;;;;24.14;36.44;93589.41;5375200;26;7310;-67
2024/04/09 05:32:31;;;;;;;;;;;;;;;24.24;36.78;93607.75;5422398;26;7343;-70
2024/04/09 05:34:58;;;;;;;;;;;;;;;24.25;36.72;93614.72;5480016;26;7151;-63
2024/04/09 05:37:28;;;;;;;;;;;;;;;24.26;36.50;93627.22;5522268;26;6964;-69
2024/04/09 05:39:58;;;;;;;;;;;;;;;24.26;36.58;93637.44;5490427;26;7466;-69
2024/04/09 05:42:24;;;;;;;;;;;;;;;24.26;37.24;93643.69;5520752;26;7066;-69
2024/04/09 05:45:20;;;;;;;;;;;;;;;24.25;36.78;93638.72;5497075;26;7101;-69
2024/04/09 05:47:49;;;;;;;;;;;;;;;24.24;36.98;93654.47;5403510;26;7272;-69
2024/04/09 05:50:16;;;;;;;;;;;;;;;24.25;36.85;93677.19;5407506;26;7113;-69
2024/04/09 05:52:45;;;;;;;;;;;;;;;24.21;36.81;93677.47;5407632;26;8981;-67
2024/04/09 05:55:12;;;;;;;;;;;;;;;24.18;36.84;93666.78;5408914;26;10327;-69
2024/04/09 05:57:41;;;;;;;;;;;;;;;24.19;36.82;93669.00;5356249;26;7782;-64
2024/04/09 06:00:13;;;;;;;;;;;;;;;24.16;37.08;93664.56;5407027;26;7666;-63
2024/04/09 06:02:47;;;;;;;;;;;;;;;24.20;37.57;93665.00;5405952;26;7098;-64
2024/04/09 06:05:17;;;;;;;;;;;;;;;24.19;37.26;93663.50;5402697;26;7317;-62
2024/04/09 06:07:44;;;;;;;;;;;;;;;24.18;37.61;93667.53;5336959;26;7049;-62
2024/04/09 06:10:14;;;;;;;;;;;;;;;24.19;38.82;93669.00;5405770;26;7280;-64
2024/04/09 06:12:41;;;;;;;;;;;;;;;24.25;39.58;93664.19;5399595;26;7046;-59
2024/04/09 06:15:07;;;;;;;;;;;;;;;24.34;40.37;93688.56;5389513;26;7450;-59
2024/04/09 06:17:35;;;;;;;;;;;;;;;24.36;40.46;93715.53;5404520;26;7204;-59
2024/04/09 06:20:05;;;;;;;;;;;;;;;24.46;40.86;93703.66;5371723;26;9197;-59
2024/04/09 06:22:31;;;;;;;;;;;;;;;24.50;41.32;93690.34;5406445;26;7385;-59
2024/04/09 06:24:57;;;;;;;;;;;;;;;24.77;66.37;93698.75;5479273;26;7043;-59
2024/04/09 06:27:23;;;;;;;;;;;;;;;24.89;41.70;93683.56;5509139;26;7356;-59
2024/04/09 06:29:52;;;;;;;;;;;;;;;24.80;40.67;93697.72;5507414;26;7271;-59
2024/04/09 06:32:19;;;;;;;;;;;;;;;24.64;40.23;93691.16;5517517;26;7275;-59
2024/04/09 06:34:51;;;;;;;;;;;;;;;24.60;39.95;93698.94;5487338;26;9036;-60
2024/04/09 06:37:19;;;;;;;;;;;;;;;24.56;39.47;93707.50;5513541;26;7496;-60
2024/04/09 06:39:46;;;;;;;;;;;;;;;24.47;39.39;93721.63;5518509;26;7040;-60
2024/04/09 06:42:13;;;;;;;;;;;;;;;24.39;39.10;93725.47;5484921;26;7269;-60
2024/04/09 06:44:39;;;;;;;;;;;;;;;24.39;38.49;93733.72;5518180;26;7052;-60
2024/04/09 06:47:07;;;;;;;;;;;;;;;24.30;38.51;93718.34;5513261;26;7204;-60
2024/04/09 06:49:34;;;;;;;;;;;;;;;24.23;38.61;93718.91;5483960;26;9068;-60
2024/04/09 06:52:02;;;;;;;;;;;;;;;24.28;38.42;93733.84;5495726;26;7161;-60
2024/04/09 06:54:31;;;;;;;;;;;;;;;24.27;38.45;93741.34;5515425;26;7088;-60
2024/04/09 06:56:58;;;;;;;;;;;;;;;24.17;38.14;93742.22;5514482;26;7104;-60
2024/04/09 06:59:24;;;;;;;;;;;;;;;24.27;38.11;93776.34;5477756;26;7736;-60
2024/04/09 07:01:52;;;;;;;;;;;;;;;24.20;38.33;93768.66;5480105;26;7232;-59
2024/04/09 07:04:21;;;;;;;;;;;;;;;24.14;38.76;93782.47;5513019;26;7194;-59
2024/04/09 07:06:50;;;;;;;;;;;;;;;24.27;38.68;93790.81;5514802;26;7091;-58
2024/04/09 07:09:17;;;;;;;;;;;;;;;24.22;38.50;93780.63;5516846;26;7043;-60
2024/04/09 07:11:48;;;;;;;;;;;;;;;24.22;38.79;93766.91;5483834;26;7687;-60
2024/04/09 07:14:17;;;;;;;;;;;;;;;24.21;39.11;93784.63;5481729;26;7548;-59
2024/04/09 07:16:46;;;;;;;;;;;;;;;24.31;39.21;93785.03;5476416;26;7359;-60
2024/04/09 07:19:12;;;;;;;;;;;;;;;24.32;39.01;93792.00;5516520;26;7226;-60
2024/04/09 07:21:38;;;;;;;;;;;;;;;24.38;38.95;93814.69;5516327;26;7024;-60
2024/04/09 07:24:09;;;;;;;;;;;;;;;24.41;39.29;93810.91;5507197;26;7534;-61
2024/04/09 07:26:40;;;;;;;;;;;;;;;24.49;39.11;93829.06;5474165;26;7218;-61
2024/04/09 07:29:09;;;;;;;;;;;;;;;24.59;38.85;93841.19;5506439;26;7563;-61
2024/04/09 07:31:36;;;;;;;;;;;;;;;24.65;38.95;93852.88;5509342;26;7395;-60
2024/04/09 07:34:14;;;;;;;;;;;;;;;24.68;38.92;93857.31;5521187;26;7492;-61
2024/04/09 07:36:44;;;;;;;;;;;;;;;24.77;39.10;93861.03;5511050;26;7202;-61
2024/04/09 07:39:14;;;;;;;;;;;;;;;24.92;39.10;93869.59;5515900;26;8631;-61
2024/04/09 07:42:15;;;;;;;;;;;;;;;25.13;38.60;93885.09;5478841;26;6992;-61
2024/04/09 07:44:57;;;;;;;;;;;;;;;25.24;38.23;93886.94;5481391;26;9542;-61
2024/04/09 07:47:28;;;;;;;;;;;;;;;25.39;38.08;93915.53;5447581;26;7376;-61
2024/04/09 07:50:09;;;;;;;;;;;;;;;25.53;37.88;93924.63;5480539;26;7140;-61
2024/04/09 07:52:38;;;;;;;;;;;;;;;25.57;37.38;93925.09;5478991;26;7169;-61
2024/04/09 07:55:17;;;;;;;;;;;;;;;25.66;37.38;93932.97;5478500;26;7333;-61
2024/04/09 07:57:55;;;;;;;;;;;;;;;25.81;37.29;93943.53;5432420;26;7186;-61
2024/04/09 08:00:34;;;;;;;;;;;;;;;25.83;37.00;93961.03;5480589;26;7489;-61
2024/04/09 08:03:19;;;;;;;;;;;;;;;25.94;36.84;93966.38;5479726;26;8626;-61
2024/04/09 08:06:00;;;;;;;;;;;;;;;25.94;37.01;93960.88;5465416;26;7376;-61
2024/04/09 08:08:35;;;;;;;;;;;;;;;26.03;36.72;93974.22;5450338;26;7581;-61
2024/04/09 08:11:14;;;;;;;;;;;;;;;25.99;36.68;93981.34;5487643;26;7416;-61
2024/04/09 08:13:58;;;;;;;;;;;;;;;26.09;36.76;93999.75;5480157;26;7328;-61
2024/04/09 08:16:39;;;;;;;;;;;;;;;26.12;36.80;93998.69;5479754;26;9605;-61
2024/04/09 08:19:27;;;;;;;;;;;;;;;26.18;36.44;94006.91;5477933;26;7121;-61
2024/04/09 08:21:54;;;;;;;;;;;;;;;26.13;36.86;94005.69;5520281;26;8207;-61
2024/04/09 08:24:20;;;;;;;;;;;;;;;26.22;37.05;94028.63;5489348;26;7105;-61
2024/04/09 08:27:03;;;;;;;;;;;;;;;26.23;36.92;94035.66;5509755;26;8045;-61
2024/04/09 08:29:35;;;;;;;;;;;;;;;26.19;36.86;94037.97;5505618;26;7583;-61
2024/04/09 08:32:05;;;;;;;;;;;;;;;26.26;36.44;94040.84;5476587;26;7061;-61
2024/04/09 08:34:41;;;;;;;;;;;;;;;26.19;36.69;94026.94;5487936;26;7555;-60
2024/04/09 08:37:17;;;;;;;;;;;;;;;26.26;36.84;94048.38;5482187;26;7016;-60
2024/04/09 08:39:52;;;;;;;;;;;;;;;26.32;36.73;94062.84;5489472;26;7511;-60
2024/04/09 08:42:22;;;;;;;;;;;;;;;26.28;36.67;94065.88;5523061;26;7469;-60
2024/04/09 08:45:03;;;;;;;;;;;;;;;26.35;36.63;94072.81;5522905;26;7545;-60
2024/04/09 08:48:05;;;;;;;;;;;;;;;26.37;36.70;94092.31;5504619;26;7384;-61
2024/04/09 08:51:00;;;;;;;;;;;;;;;26.37;36.39;94090.31;5512956;26;8825;-60
2024/04/09 08:53:32;;;;;;;;;;;;;;;26.34;36.43;94101.66;5440833;26;7301;-60
2024/04/09 08:56:10;;;;;;;;;;;;;;;26.39;36.60;94117.38;5448135;26;7226;-60
2024/04/09 08:58:47;;;;;;;;;;;;;;;26.31;36.45;94105.44;5446958;26;7005;-60
2024/04/09 09:02:06;;;;;;;;;;;;;;;26.39;36.32;94126.38;5442809;26;7107;-60
2024/04/09 09:04:43;;;;;;;;;;;;;;;26.37;36.27;94134.44;5327672;26;7033;-60
2024/04/09 09:07:25;;;;;;;;;;;;;;;26.41;36.65;94142.41;5316180;26;7385;-60
2024/04/09 09:10:09;;;;;;;;;;;;;;;26.36;36.75;94138.44;5314446;26;7457;-60
2024/04/09 09:12:39;;;;;;;;;;;;;;;26.34;36.76;94141.00;5340618;26;9557;-60
2024/04/09 09:15:20;;;;;;;;;;;;;;;26.36;36.93;94143.25;5337017;26;9004;-60
2024/04/09 09:18:07;;;;;;;;;;;;;;;26.44;36.66;94168.94;5334086;26;7034;-60
2024/04/09 09:20:35;;;;;;;;;;;;;;;26.40;36.89;94160.97;5299660;26;7366;-60
2024/04/09 09:23:02;;;;;;;;;;;;;;;26.40;37.10;94174.03;5341101;26;7263;-60
2024/04/09 09:25:31;;;;;;;;;;;;;;;26.38;36.92;94169.00;5341049;26;7255;-60
2024/04/09 09:28:08;;;;;;;;;;;;;;;26.42;36.47;94188.78;5338527;26;9458;-60
2024/04/09 09:30:40;;;;;;;;;;;;;;;26.45;36.56;94193.25;5339766;26;9219;-60
2024/04/09 09:33:26;;;;;;;;;;;;;;;26.41;36.48;94186.53;5345599;26;7905;-60
2024/04/09 09:36:18;;;;;;;;;;;;;;;26.45;36.69;94201.50;5373693;26;7335;-60
2024/04/09 09:38:58;;;;;;;;;;;;;;;26.42;36.80;94204.56;5358407;26;7033;-60
2024/04/09 09:41:31;;;;;;;;;;;;;;;26.37;36.59;94206.13;5453544;26;7825;-60
2024/04/09 09:44:16;;;;;;;;;;;;;;;26.45;36.48;94228.34;5514642;26;7660;-64
2024/04/09 09:46:48;;;;;;;;;;;;;;;26.44;36.66;94232.38;5490672;26;7020;-64
2024/04/09 09:49:26;;;;;;;;;;;;;;;26.41;36.62;94241.69;5523130;26;7387;-64
2024/04/09 09:52:04;;;;;;;;;;;;;;;26.44;36.97;94249.69;5487725;26;7528;-65
2024/04/09 09:54:53;;;;;;;;;;;;;;;26.42;36.87;94256.97;5491250;26;7093;-65
2024/04/09 09:57:25;;;;;;;;;;;;;;;26.41;36.73;94260.97;5522549;26;7337;-65
2024/04/09 10:00:03;;;;;;;;;;;;;;;26.44;36.54;94271.75;5518555;26;7492;-65
2024/04/09 10:02:31;;;;;;;;;;;;;;;26.44;36.78;94271.75;5510006;26;7118;-65
2024/04/09 10:05:02;;;;;;;;;;;;;;;26.40;36.95;94265.78;5513079;26;7195;-64
2024/04/09 10:07:29;;;;;;;;;;;;;;;26.44;36.93;94288.28;5512829;26;7155;-64
2024/04/09 10:10:00;;;;;;;;;;;;;;;26.38;36.60;94276.56;5507111;26;10020;-64
2024/04/09 10:12:30;;;;;;;;;;;;;;;26.45;36.26;94300.03;5482133;26;9190;-64
2024/04/09 10:15:05;;;;;;;;;;;;;;;26.40;36.79;94311.91;5518457;26;7133;-65
2024/04/09 10:18:03;;;;;;;;;;;;;;;26.45;36.71;94306.31;5509478;26;7341;-64
2024/04/09 10:20:31;;;;;;;;;;;;;;;26.45;36.75;94308.31;5516951;26;7430;-65
2024/04/09 10:23:02;;;;;;;;;;;;;;;26.40;36.65;94304.38;5519210;26;7088;-65
2024/04/09 10:25:39;;;;;;;;;;;;;;;26.44;36.56;94317.88;5501831;26;7504;-65
2024/04/09 10:28:13;;;;;;;;;;;;;;;26.43;36.70;94324.63;5454662;26;9619;-64
2024/04/09 10:30:45;;;;;;;;;;;;;;;26.37;36.94;94326.72;5490587;26;7718;-65
2024/04/09 10:33:41;;;;;;;;;;;;;;;26.43;36.69;94330.16;5500956;26;7154;-64
2024/04/09 10:36:11;;;;;;;;;;;;;;;26.35;36.83;94315.47;5510178;26;7367;-64
2024/04/09 10:38:46;;;;;;;;;;;;;;;26.39;36.79;94327.69;5515551;26;7338;-65
2024/04/09 10:41:16;;;;;;;;;;;;;;;26.42;37.12;94337.72;5521210;26;7347;-65
2024/04/09 10:43:50;;;;;;;;;;;;;;;26.34;36.98;94328.50;5488822;26;7336;-65
2024/04/09 10:46:31;;;;;;;;;;;;;;;26.37;37.13;94338.50;5521897;26;7288;-65
2024/04/09 10:48:57;;;;;;;;;;;;;;;26.37;36.75;94341.25;5514175;26;7318;-64
2024/04/09 10:51:37;;;;;;;;;;;;;;;26.43;36.83;94360.50;5521536;26;7082;-65
2024/04/09 10:54:35;;;;;;;;;;;;;;;26.42;37.20;94361.78;5466468;26;7109;-58
2024/04/09 10:57:27;;;;;;;;;;;;;;;26.40;37.20;94378.84;5482983;26;7217;-59
2024/04/09 11:00:11;;;;;;;;;;;;;;;26.41;36.79;94385.09;5402075;26;7043;-59
2024/04/09 11:02:49;;;;;;;;;;;;;;;26.37;37.01;94373.59;5398208;26;7406;-59
2024/04/09 11:05:17;;;;;;;;;;;;;;;26.41;37.43;94387.84;5409621;26;8995;-59
2024/04/09 11:07:47;;;;;;;;;;;;;;;26.33;37.14;94384.16;5409975;26;7316;-59
2024/04/09 11:10:22;;;;;;;;;;;;;;;26.41;37.34;94399.63;5399454;26;7248;-59
2024/04/09 11:12:53;;;;;;;;;;;;;;;26.36;37.04;94385.91;5403009;26;7081;-58
2024/04/09 11:15:20;;;;;;;;;;;;;;;26.36;37.14;94383.88;5410128;26;9144;-59
2024/04/09 11:17:55;;;;;;;;;;;;;;;26.38;37.28;94375.09;5408379;26;9654;-59
2024/04/09 11:20:22;;;;;;;;;;;;;;;26.33;37.41;94373.13;5408432;26;7048;-59
2024/04/09 11:22:51;;;;;;;;;;;;;;;26.33;37.47;94378.66;5380812;26;7320;-59
2024/04/09 11:25:27;;;;;;;;;;;;;;;26.33;37.46;94376.66;5409130;26;7512;-59
2024/04/09 11:28:09;;;;;;;;;;;;;;;26.33;37.16;94376.66;5374341;26;7119;-59
2024/04/09 11:30:42;;;;;;;;;;;;;;;26.29;37.41;94376.19;5404392;26;7133;-58
2024/04/09 11:33:10;;;;;;;;;;;;;;;26.30;37.58;94387.94;5377818;26;7082;-59
2024/04/09 11:35:38;;;;;;;;;;;;;;;26.26;37.46;94376.47;5381647;26;7085;-59
2024/04/09 11:38:15;;;;;;;;;;;;;;;26.29;37.60;94392.75;5521343;26;7044;-59
2024/04/09 11:40:51;;;;;;;;;;;;;;;26.26;37.43;94399.28;5470206;26;7260;-59
2024/04/09 11:43:20;;;;;;;;;;;;;;;26.08;37.62;94370.34;5518775;26;7084;-59
2024/04/09 11:46:21;;;;;;;;;;;;;;;26.12;37.79;94384.59;5515222;26;7045;-59
2024/04/09 11:48:47;;;;;;;;;;;;;;;26.08;37.64;94389.66;5430834;26;7302;-59
2024/04/09 11:51:22;;;;;;;;;;;;;;;26.03;37.91;94398.66;5459726;26;7614;-58
2024/04/09 11:53:58;;;;;;;;;;;;;;;25.95;37.86;94408.75;5424960;26;8442;-59
2024/04/09 11:56:53;;;;;;;;;;;;;;;25.90;38.30;94406.06;5466465;26;7317;-59
2024/04/09 11:59:58;;;;;;;;;;;;;;;25.83;38.01;94409.38;5275761;27;7024;-60
2024/04/09 12:02:26;;;;;;;;;;;;;;;25.74;38.32;94401.41;5233266;27;7127;-64
2024/04/09 12:04:55;;;;;;;;;;;;;;;25.70;38.41;94407.19;5232164;27;7501;-64
2024/04/09 12:07:33;;;;;;;;;;;;;;;25.60;38.48;94394.97;5245832;27;7440;-64
2024/04/09 12:10:14;;;;;;;;;;;;;;;25.62;38.45;94402.75;5236920;27;7075;-65
2024/04/09 12:12:41;;;;;;;;;;;;;;;25.60;38.61;94400.50;5236359;27;7107;-65
2024/04/09 12:15:19;;;;;;;;;;;;;;;25.54;38.89;94413.56;5252738;27;7314;-64
2024/04/09 12:18:01;;;;;;;;;;;;;;;25.44;39.11;94406.88;5241809;27;7054;-65
2024/04/09 12:20:43;;;;;;;;;;;;;;;25.40;38.64;94415.34;5222859;27;7517;-64
2024/04/09 12:23:10;;;;;;;;;;;;;;;25.35;38.69;94409.88;5235944;27;7352;-64
2024/04/09 12:25:37;;;;;;;;;;;;;;;25.32;39.20;94419.91;5280925;27;7286;-64
2024/04/09 12:28:20;;;;;;;;;;;;;;;25.19;39.30;94405.19;5303635;27;8008;-64
2024/04/09 12:31:18;;;;;;;;;;;;;;;25.16;39.42;94431.00;5303459;27;9386;-64
2024/04/09 12:33:57;;;;;;;;;;;;;;;24.98;39.50;94421.31;5249793;27;7137;-65
2024/04/09 12:36:32;;;;;;;;;;;;;;;24.95;40.11;94419.56;5347479;26;7399;-64
2024/04/09 12:38:59;;;;;;;;;;;;;;;24.81;39.86;94406.09;5358546;26;7381;-64
2024/04/09 12:41:45;;;;;;;;;;;;;;;24.76;40.20;94417.88;5339444;26;9587;-64
2024/04/09 12:44:11;;;;;;;;;;;;;;;24.58;40.61;94419.88;5350472;26;7691;-64
2024/04/09 12:46:45;;;;;;;;;;;;;;;24.53;40.18;94419.91;5357540;26;7164;-64
2024/04/09 12:49:28;;;;;;;;;;;;;;;24.36;40.90;94403.41;5357422;26;6977;-64
2024/04/09 12:52:09;;;;;;;;;;;;;;;24.40;40.76;94409.41;5365314;26;7172;-63
2024/04/09 12:54:46;;;;;;;;;;;;;;;24.36;41.55;94433.66;5343016;26;9051;-64
2024/04/09 12:57:27;;;;;;;;;;;;;;;24.31;41.59;94437.19;5358091;26;7713;-63
2024/04/09 13:00:26;;;;;;;;;;;;;;;24.34;41.28;94427.91;5366818;26;7105;-65
2024/04/09 13:03:21;;;;;;;;;;;;;;;24.31;41.26;94433.69;5340228;26;7905;-64
2024/04/09 13:06:23;;;;;;;;;;;;;;;;;;5372186;26;7912;-64
2024/04/09 13:09:20;;;;;;;;;;;;;;;24.16;41.72;94452.41;5326356;26;7311;-64
2024/04/09 13:11:55;;;;;;;;;;;;;;;24.12;41.60;94435.44;5294010;27;7388;-63
2024/04/09 13:14:22;;;;;;;;;;;;;;;24.04;41.86;94437.91;5276090;27;8026;-59
2024/04/09 13:17:04;;;;;;;;;;;;;;;23.98;41.80;94440.66;5301426;27;7029;-59
2024/04/09 13:19:43;;;;;;;;;;;;;;;24.01;42.27;94447.16;5299313;26;7153;-59
2024/04/09 13:22:09;;;;;;;;;;;;;;;23.99;42.57;94436.63;5301799;26;7301;-59
2024/04/09 13:24:35;;;;;;;;;;;;;;;24.00;42.20;94442.88;5299291;27;8721;-59
2024/04/09 13:27:04;;;;;;;;;;;;;;;23.98;42.10;94421.41;5309639;26;9131;-59
2024/04/09 13:29:39;;;;;;;;;;;;;;;24.00;42.31;94426.41;5326539;26;7344;-59
2024/04/09 13:32:06;;;;;;;;;;;;;;;23.91;41.98;94412.91;5309233;26;7364;-59
2024/04/09 13:34:32;;;;;;;;;;;;;;;24.01;41.97;94438.16;5305917;26;9326;-59
2024/04/09 13:37:10;;;;;;;;;;;;;;;23.99;41.93;94446.88;5314712;26;8009;-59
2024/04/09 13:39:40;;;;;;;;;;;;;;;24.01;42.04;94449.13;5387637;26;7297;-59
2024/04/09 13:42:14;;;;;;;;;;;;;;;24.01;41.95;94451.88;5452661;26;7127;-59
2024/04/09 13:44:44;;;;;;;;;;;;;;;24.06;41.70;94451.16;5512906;26;7606;-59